DW8453 Bekkjarvik NO current weather conditions

sailwx.info

Wind from 167 at 4 knots gusting 6

Air temperature -0.0° C
Dewpoint -3.0° C

Last reported at 2018-Feb-26 01:09 UTC.
Time now 2018-Feb-26 01:43 UTC

Location: N 60°01' E 005°12'.
View on Google Maps.

See reports from other nearby stations

  
Tides and Currents Weather Stations Pressure Air Temp Water Temp Dewpoint Dewpoint Depression Visibility Wind Speed Wind Dir Waves Ship Positions
date/time (UTC)wind fromknots sea level pressurealtimeterstation pressurevisibilityair tempwater tempwave heightnotes
2018-Feb-26 01:09 167 4 gusting 6 -0.0
2018-Feb-26 01:04 175 6 gusting 6 -0.0
2018-Feb-26 00:59 180 4 gusting 6 -0.0
2018-Feb-26 00:54 174 5 gusting 10 -0.0
2018-Feb-26 00:49 175 6 gusting 7 -0.0
2018-Feb-26 00:44 198 7 gusting 11 -0.0
2018-Feb-26 00:39 186 6 gusting 8 -0.0
2018-Feb-26 00:34 193 9 gusting 13 -0.0
2018-Feb-26 00:29 190 12 gusting 12 -0.0
2018-Feb-26 00:24 198 13 gusting 13 -0.0
2018-Feb-26 00:19 208 7 gusting 7 0.6
2018-Feb-26 00:14 195 4 gusting 6 0.6
2018-Feb-26 00:09 187 8 gusting 11 0.6
2018-Feb-26 00:04 180 7 gusting 7 0.6
2018-Feb-25 23:59 181 7 gusting 8 0.6
2018-Feb-25 23:54 195 6 gusting 6 0.6
2018-Feb-25 23:49 177 5 gusting 6 0.6
2018-Feb-25 23:44 207 12 gusting 12 0.6
2018-Feb-25 23:39 196 4 gusting 7 0.6
2018-Feb-25 23:34 168 3 gusting 6 0.6
2018-Feb-25 23:29 180 2 gusting 5 0.6
2018-Feb-25 23:24 180 8 gusting 7 0.6
2018-Feb-25 23:19 202 9 gusting 8 0.6
2018-Feb-25 23:14 190 6 gusting 7 0.6
2018-Feb-25 23:10 225 3 gusting 5 0.6
2018-Feb-25 22:59 193 4 gusting 4 0.6
2018-Feb-25 22:54 208 5 gusting 5 0.6
2018-Feb-25 22:49 206 5 gusting 6 0.6
2018-Feb-25 22:44 205 2 gusting 5 0.6
2018-Feb-25 22:39 208 3 gusting 4 0.6
2018-Feb-25 22:34 192 6 gusting 6 0.6
2018-Feb-25 22:29 206 3 gusting 4 0.6
2018-Feb-25 22:24 202 6 gusting 6 0.6
2018-Feb-25 22:19 202 5 gusting 6 0.6
2018-Feb-25 22:14 212 4 gusting 5 0.6
2018-Feb-25 22:09 202 1 gusting 2 0.6
2018-Feb-25 22:04 202 3 gusting 4 0.6
2018-Feb-25 21:59 182 2 gusting 4 0.6
2018-Feb-25 21:54 202 1 gusting 2 0.6
2018-Feb-25 21:49 202 2 gusting 1 0.6
2018-Feb-25 21:44 195 4 gusting 5 0.6
2018-Feb-25 21:39 225 2 gusting 2 0.6
2018-Feb-25 21:34 213 1 gusting 1 0.6
2018-Feb-25 21:29 208 1 gusting 1 0.6
2018-Feb-25 21:24 217 2 gusting 1 0.6
2018-Feb-25 21:19 225 2 gusting 2 0.6
2018-Feb-25 21:15 202 0.6
2018-Feb-25 21:09 202 1 gusting 2 0.6
2018-Feb-25 21:04 180 1 gusting 1 0.6
2018-Feb-25 20:59 202 5 gusting 6 0.6
2018-Feb-25 20:54 190 7 gusting 7 0.6
2018-Feb-25 20:49 206 5 gusting 6 0.6
2018-Feb-25 20:44 195 6 gusting 8 0.6
2018-Feb-25 20:39 187 4 gusting 5 0.6
2018-Feb-25 20:34 220 6 gusting 6 0.6
2018-Feb-25 20:29 198 2 gusting 5 0.6
2018-Feb-25 20:24 180 3 gusting 5 0.6
2018-Feb-25 20:19 178 1 gusting 2 0.6
2018-Feb-25 20:14 202 4 gusting 5 0.6
2018-Feb-25 20:09 224 5 gusting 5 0.6
2018-Feb-25 20:04 225 2 gusting 5 0.6
2018-Feb-25 19:59 184 3 gusting 5 0.6
2018-Feb-25 19:54 202 2 gusting 1 0.6
2018-Feb-25 19:49 202 3 gusting 6 0.6
2018-Feb-25 19:44 180 4 gusting 6 0.6
2018-Feb-25 19:39 168 2 gusting 2 0.6
2018-Feb-25 19:34 202 4 gusting 5 0.6
2018-Feb-25 19:29 202 5 gusting 6 0.6
2018-Feb-25 19:24 200 2 gusting 2 0.6
2018-Feb-25 19:19 202 4 gusting 4 0.6
2018-Feb-25 19:14 228 2 gusting 4 0.6
2018-Feb-25 19:09 244 4 gusting 4 0.6
2018-Feb-25 19:04 248 2 gusting 2 0.6
2018-Feb-25 18:59 231 2 gusting 2 0.6
2018-Feb-25 18:54 244 1 gusting 2 0.6
2018-Feb-25 18:49 248 2 gusting 2 0.6
2018-Feb-25 18:44 245 1 gusting 2 0.6
2018-Feb-25 18:39 248 2 gusting 4 0.6
2018-Feb-25 18:34 244 2 gusting 2 0.6
2018-Feb-25 18:29 228 4 gusting 4 0.6
2018-Feb-25 18:24 248 6 gusting 6 0.6
2018-Feb-25 18:19 248 7 gusting 6 0.6
2018-Feb-25 18:14 245 5 gusting 5 0.6
2018-Feb-25 18:09 225 8 gusting 6 0.6
2018-Feb-25 18:04 223 5 gusting 6 0.6
2018-Feb-25 17:59 248 6 gusting 6 0.6
2018-Feb-25 17:54 243 2 gusting 2 0.6
2018-Feb-25 17:49 225 5 gusting 5 0.6
2018-Feb-25 17:44 248 1 gusting 2 0.6
2018-Feb-25 17:39 228 0 gusting 1 0.6
2018-Feb-25 17:34 209 5 gusting 4 1.1
2018-Feb-25 17:29 248 2 gusting 2 1.1
2018-Feb-25 17:24 225 2 gusting 4 1.1
2018-Feb-25 17:19 248 4 gusting 5 1.1
2018-Feb-25 17:14 225 2 gusting 4 1.1
2018-Feb-25 17:09 248 2 gusting 4 1.1
2018-Feb-25 17:04 225 1 gusting 1 1.1
2018-Feb-25 17:00 209 2 gusting 5 1.1
2018-Feb-25 16:54 219 2 gusting 1 1.1
2018-Feb-25 16:49 225 5 gusting 5 1.1
2018-Feb-25 16:44 225 5 gusting 5 1.1
2018-Feb-25 16:39 225 3 gusting 4 1.1
2018-Feb-25 16:34 186 4 gusting 5 1.1
2018-Feb-25 16:30 209 7 gusting 7 1.1
2018-Feb-25 16:24 225 4 gusting 5 1.1
2018-Feb-25 16:19 207 7 gusting 6 1.1
2018-Feb-25 16:14 206 5 gusting 5 1.1
2018-Feb-25 16:09 225 9 gusting 8 1.7
2018-Feb-25 16:04 246 6 gusting 7 1.7
2018-Feb-25 15:59 234 6 gusting 7 1.7
2018-Feb-25 15:54 232 7 gusting 7 1.7
2018-Feb-25 15:49 258 6 gusting 7 1.7
2018-Feb-25 15:44 237 3 gusting 5 1.7
2018-Feb-25 15:39 202 4 gusting 5 1.7
2018-Feb-25 15:34 225 5 gusting 6 1.7
2018-Feb-25 15:29 240 9 gusting 7 1.7
2018-Feb-25 15:24 248 8 gusting 8 1.7
2018-Feb-25 15:19 229 10 gusting 10 2.2
2018-Feb-25 15:14 262 7 gusting 8 2.2
2018-Feb-25 15:09 248 6 gusting 8 2.2
2018-Feb-25 15:04 245 6 gusting 8 2.2
2018-Feb-25 14:59 232 7 gusting 8 2.2
2018-Feb-25 14:54 248 8 gusting 8 2.2
2018-Feb-25 14:49 240 5 gusting 6 2.2
2018-Feb-25 14:44 225 5 gusting 6 2.2
2018-Feb-25 14:39 225 10 gusting 8 2.2
2018-Feb-25 14:34 237 7 gusting 7 2.2
2018-Feb-25 14:29 225 5 gusting 6 2.2
2018-Feb-25 14:24 187 8 gusting 8 2.2
2018-Feb-25 14:20 231 7 gusting 6 2.2
2018-Feb-25 14:14 240 12 gusting 8 2.2
2018-Feb-25 14:09 244 6 gusting 8 2.2
2018-Feb-25 14:04 164 12 gusting 11 2.8
2018-Feb-25 13:59 242 8 gusting 7 2.8
2018-Feb-25 13:54 225 10 gusting 10 2.8
2018-Feb-25 13:49 225 5 gusting 10 2.8
2018-Feb-25 13:44 262 7 gusting 8 2.8
2018-Feb-25 13:39 237 7 gusting 7 3.3
2018-Feb-25 13:34 248 6 gusting 7 3.3
2018-Feb-25 13:29 203 10 gusting 8 3.3
2018-Feb-25 13:24 238 4 gusting 6 3.3
2018-Feb-25 13:19 225 6 gusting 6 3.3
2018-Feb-25 13:14 219 6 gusting 6 3.3
2018-Feb-25 13:09 225 8 gusting 12 3.3
2018-Feb-25 13:04 185 5 gusting 8 3.3
2018-Feb-25 12:59 182 10 gusting 11 2.8
2018-Feb-25 12:54 168 11 gusting 11 2.2
2018-Feb-25 12:49 169 7 gusting 8 2.2
2018-Feb-25 11:09 189 9 gusting 11 2.2
2018-Feb-25 11:05 180 8 gusting 8 2.2
2018-Feb-24 08:50 180 6 gusting 6 2.2
2018-Feb-24 08:45 158 5 gusting 6 2.2
2018-Feb-24 08:40 180 10 gusting 8 2.2
2018-Feb-24 08:35 161 7 gusting 8 2.2
2018-Feb-24 08:30 160 5 gusting 6 2.2
2018-Feb-24 08:25 180 9 gusting 10 2.2
2018-Feb-24 08:20 178 6 gusting 7 2.2
2018-Feb-24 08:15 160 9 gusting 8 2.2
2018-Feb-24 08:10 181 9 gusting 8 2.2
2018-Feb-24 08:05 159 6 gusting 6 2.2
2018-Feb-24 08:00 161 12 gusting 8 1.7
2018-Feb-24 07:55 177 11 gusting 10 1.7
2018-Feb-24 07:50 138 6 gusting 6 1.7
2018-Feb-24 07:45 158 6 gusting 6 1.7
2018-Feb-24 07:40 135 5 gusting 5 1.7
2018-Feb-24 07:35 173 6 gusting 6 1.7
2018-Feb-24 07:30 156 6 gusting 7 1.7
2018-Feb-24 07:25 137 6 gusting 6 1.7
2018-Feb-24 07:20 112 8 gusting 7 1.7
2018-Feb-24 07:15 135 8 gusting 6 1.7
2018-Feb-24 07:10 179 4 gusting 5 1.7
2018-Feb-24 07:05 135 5 gusting 6 1.7
2018-Feb-24 07:00 147 5 gusting 6 1.7
2018-Feb-24 06:55 144 5 gusting 6 1.7
2018-Feb-24 06:50 123 6 gusting 7 1.7
2018-Feb-24 06:45 148 10 gusting 11 1.7
2018-Feb-24 06:40 125 6 gusting 7 1.7
2018-Feb-24 06:35 135 11 gusting 13 1.7
2018-Feb-24 06:30 135 8 gusting 8 1.7
2018-Feb-24 06:25 116 13 gusting 14 1.7
2018-Feb-24 06:20 162 8 gusting 8 1.7
2018-Feb-24 06:15 135 8 gusting 10 1.7
2018-Feb-24 06:10 112 10 gusting 10 1.7
2018-Feb-24 06:05 156 8 gusting 11 1.7
2018-Feb-24 06:00 141 11 gusting 12 1.7
2018-Feb-24 05:55 124 7 gusting 7 1.7
2018-Feb-24 05:50 135 8 gusting 8 1.7
2018-Feb-24 05:45 125 10 gusting 11 1.7
2018-Feb-24 05:40 126 18 gusting 15 1.7
2018-Feb-24 05:35 127 10 gusting 13 1.7
2018-Feb-24 05:30 112 6 gusting 7 1.7
2018-Feb-24 05:25 135 12 gusting 10 1.7
2018-Feb-24 05:20 130 7 gusting 8 1.7
2018-Feb-24 05:15 135 6 gusting 8 1.7
2018-Feb-24 05:10 113 6 gusting 8 1.7
2018-Feb-24 05:05 136 10 gusting 12 1.7
2018-Feb-24 05:00 135 8 gusting 8 1.7
2018-Feb-24 04:55 126 10 gusting 10 1.1
2018-Feb-24 04:50 122 7 gusting 8 1.1
2018-Feb-24 04:45 134 6 gusting 8 1.1
2018-Feb-24 04:40 135 7 gusting 7 1.1
2018-Feb-24 04:35 126 8 gusting 8 1.1
2018-Feb-24 04:30 106 13 gusting 11 1.1
2018-Feb-24 04:25 119 8 gusting 10 1.1
2018-Feb-24 04:20 131 8 gusting 8 1.1
2018-Feb-24 04:15 130 11 gusting 10 1.1
2018-Feb-24 04:10 112 7 gusting 7 1.1
2018-Feb-24 04:05 135 9 gusting 8 1.1
2018-Feb-24 04:00 119 7 gusting 10 1.1
2018-Feb-24 03:55 112 6 gusting 8 1.1
2018-Feb-24 03:50 127 7 gusting 10 0.6
2018-Feb-24 03:45 125 6 gusting 10 0.6
2018-Feb-24 03:40 135 7 gusting 8 0.6
2018-Feb-24 03:35 158 6 gusting 6 0.6
2018-Feb-24 03:30 129 6 gusting 6 0.6
2018-Feb-24 03:25 148 6 gusting 7 0.6
2018-Feb-24 03:20 112 6 gusting 7 0.6
2018-Feb-24 03:15 117 11 gusting 8 0.6
2018-Feb-24 03:10 131 10 gusting 8 0.6
2018-Feb-24 03:05 131 6 gusting 6 0.6
2018-Feb-24 03:00 135 5 gusting 6 0.6
2018-Feb-24 02:55 122 5 gusting 7 0.6
2018-Feb-24 02:50 136 6 gusting 7 0.6
2018-Feb-24 02:45 135 7 gusting 7 0.6
2018-Feb-24 02:40 145 7 gusting 7 -0.0
2018-Feb-24 02:35 150 6 gusting 7 -0.0
2018-Feb-24 02:30 127 11 gusting 11 -0.0
2018-Feb-24 02:25 135 13 gusting 11 -0.0
2018-Feb-24 02:20 135 8 gusting 7 -0.0
2018-Feb-24 02:15 115 7 gusting 7 -0.0
2018-Feb-24 02:10 112 10 gusting 8 -0.0
2018-Feb-24 02:05 135 7 gusting 8 -0.0
2018-Feb-24 02:00 135 13 gusting 15 -0.0
2018-Feb-24 01:55 135 9 gusting 8 -0.0
2018-Feb-24 01:50 130 6 gusting 6 -0.0
2018-Feb-24 01:45 143 11 gusting 10 -0.0
2018-Feb-24 01:40 129 6 gusting 7 -0.0
2018-Feb-24 01:35 140 7 gusting 7 -0.0
2018-Feb-24 01:30 135 6 gusting 6 -0.0
2018-Feb-24 01:25 156 5 gusting 6 -0.0
2018-Feb-24 01:20 137 6 gusting 6 -0.0
2018-Feb-24 01:15 135 6 gusting 6 -0.0
2018-Feb-24 01:10 112 10 gusting 8 -0.0
2018-Feb-24 01:05 113 5 gusting 6 -0.0
2018-Feb-24 01:00 131 7 gusting 8 -0.0